Latest Coastal Weather Observations for Cape Bruny AWS

IDT60701

Issued at 7:56 pm EDT Tuesday 3 March 2015 (issued every 10 minutes, with the page automatically refreshed every 10 minutes)

About coastal observations | Map of coastal stations | Coastal observations for TAS | Marine services | Other Formats
Station Details ID: 094198 Name: CAPE BRUNY (CAPE BRUNY) Lat: -43.49 Lon: 147.14 Height: 59.7 m
Data from the previous 72 hours. | See also: Recent months at Cape Bruny AWS
Date/Time
EDT
Temp

°C
Wind Pressure Rain
since 9am
mm
Weather Cloud Vis
km
Sea
Height
m
Swell
Dir
 
Speed
knots
Gust
knots
hPa Trend Height
m
Period
s
Dir
03/07:30pm 15.4 WNW 21 26 1009.4 - 0.0 - - - - - - -
03/07:00pm 16.1 WNW 17 26 1009.9 - 0.0 - - - - - - -
03/06:35pm 17.1 WNW 16 26 1010.1 - 0.0 - - - - - - -
03/06:30pm 17.4 WNW 17 26 1010.1 - 0.0 - - - - - - -
03/06:09pm 17.6 WNW 15 25 1010.0 - 0.0 - - - - - - -
03/06:00pm 17.9 WNW 16 21 1010.0 - 0.0 - - - - - - -
03/05:30pm 18.2 WNW 19 29 1010.1 - 0.0 - - - - - - -
03/05:27pm 18.2 WNW 19 29 1010.1 - 0.0 - - - - - - -
03/05:11pm 18.8 WNW 15 23 1010.3 - 0.0 - - - - - - -
03/05:00pm 17.9 WNW 5 13 1010.5 - 0.0 - - - - - - -
03/04:30pm 17.4 S 7 9 1011.0 - 0.0 - - - - - - -
03/04:00pm 16.9 S 8 11 1011.3 - 0.0 - - - - - - -
03/03:30pm 16.7 S 7 10 1011.6 - 0.0 - - - - - - -
03/03:00pm 17.5 S 8 12 1012.2 - 0.0 - - - - - - -
03/02:30pm 15.4 SSW 8 11 1012.4 - 0.0 - - - - - - -
03/02:00pm 17.3 S 8 11 1012.7 - 0.0 - - - - - - -
03/01:30pm 18.3 WNW 5 9 1013.0 - 0.0 - - - - - - -
03/01:00pm 17.2 W 5 8 1013.4 - 0.0 - - - - - - -
03/12:30pm 17.6 W 8 10 1013.9 - 0.0 - - - - - - -
03/12:00pm 15.5 W 7 8 1014.3 - 0.0 - - - - - - -
03/11:30am 16.1 W 8 11 1014.5 - 0.0 - - - - - - -
03/11:00am 15.5 W 7 11 1014.7 - 0.0 - - - - - - -
03/10:30am 16.0 WNW 8 10 1014.5 - 0.0 - - - - - - -
03/10:00am 14.1 W 10 14 1014.3 - 0.0 - - - - - - -
03/09:30am 14.2 W 9 11 1014.3 - 0.0 - - - - - - -
03/09:00am 13.3 WNW 14 17 1014.0 - 0.0 - - - - - - -
03/08:30am 13.2 W 18 23 1013.9 - 0.0 - - - - - - -
03/08:00am 12.8 W 19 25 1013.5 - 0.0 - - - - - - -
03/07:30am 12.6 WSW 22 27 1013.2 - 0.0 - - - - - - -
03/07:00am 12.7 WSW 18 25 1012.7 - 0.0 - - - - - - -
03/06:30am 12.8 WSW 19 26 1012.3 - 0.0 - - - - - - -
03/06:00am 13.1 W 16 22 1011.8 - 0.0 - - - - - - -
03/05:30am 13.1 WSW 18 23 1011.5 - 0.0 - - - - - - -
03/05:00am 13.0 WSW 17 22 1011.3 - 0.0 - - - - - - -
03/04:30am 12.5 W 21 27 1011.0 - 0.0 - - - - - - -
03/04:00am 12.9 W 20 29 1011.0 - 0.0 - - - - - - -
03/03:44am 12.9 W 24 34 1010.9 - 0.0 - - - - - - -
03/03:30am 12.9 WSW 23 31 1010.8 - 0.0 - - - - - - -
03/03:00am 12.4 WSW 22 33 1010.9 - 0.0 - - - - - - -
03/02:56am 12.4 WSW 23 33 1010.9 - 0.0 - - - - - - -
03/02:30am 12.7 WSW 17 25 1010.9 - 0.0 - - - - - - -
03/02:00am 13.6 W 19 25 1010.8 - 0.0 - - - - - - -
03/01:54am 15.2 WNW 13 25 1010.7 - 0.0 - - - - - - -
03/01:30am 14.6 NNW 7 12 1010.5 - 0.0 - - - - - - -
03/01:00am 14.6 N 10 14 1010.4 - 0.0 - - - - - - -
03/12:30am 14.3 N 9 15 1010.4 - 0.0 - - - - - - -
03/12:00am 14.3 NNW 11 16 1010.3 - 0.0 - - - - - - -
 
Date/Time
EDT
Temp

°C
Wind Pressure Rain
since 9am
mm
Weather Cloud Vis
km
Sea
Height
m
Swell
Dir
 
Speed
knots
Gust
knots
hPa Trend Height
m
Period
s
Dir
02/11:30pm 14.5 NNW 9 14 1010.9 - 0.0 - - - - - - -
02/11:00pm 14.6 NW 10 15 1011.2 - 0.0 - - - - - - -
02/10:30pm 14.9 WNW 18 25 1011.2 - 0.0 - - - - - - -
02/10:00pm 14.9 WNW 24 30 1011.3 - 0.0 - - - - - - -
02/09:51pm 15.0 WNW 17 26 1011.6 - 0.0 - - - - - - -
02/09:30pm 14.6 W 13 16 1011.8 - 0.0 - - - - - - -
02/09:00pm 14.0 WNW 11 19 1011.5 - 0.0 - - - - - - -
02/08:30pm 13.1 CALM 0 0 1011.2 - 0.0 - - - - - - -
02/08:00pm 13.1 SSE 4 5 1010.8 - 0.0 - - - - - - -
02/07:30pm 13.9 SSE 6 8 1010.7 - 0.0 - - - - - - -
02/07:00pm 14.4 S 7 11 1010.5 - 0.0 - - - - - - -
02/06:30pm 14.6 S 10 16 1010.8 - 0.0 - - - - - - -
02/06:00pm 15.7 S 8 11 1010.5 - 0.0 - - - - - - -
02/05:30pm 15.6 S 9 11 1010.7 - 0.0 - - - - - - -
02/05:00pm 16.5 SSE 9 12 1011.1 - 0.0 - - - - - - -
02/04:30pm 15.6 S 10 15 1011.2 - 0.0 - - - - - - -
02/04:00pm 15.8 SSW 9 13 1011.8 - 0.0 - - - - - - -
02/03:30pm 16.7 S 7 9 1012.4 - 0.0 - - - - - - -
02/03:00pm 17.1 SSE 7 9 1012.9 - 0.0 - - - - - - -
02/02:30pm 18.6 NE 8 11 1013.3 - 0.0 - - - - - - -
02/02:00pm 17.4 NE 8 13 1013.7 - 0.0 - - - - - - -
02/01:30pm 17.7 NNE 9 15 1014.3 - 0.0 - - - - - - -
02/01:00pm 16.7 NE 9 12 1014.9 - 0.0 - - - - - - -
02/12:30pm 15.4 NNE 8 11 1015.6 - 0.0 - - - - - - -
02/12:00pm 14.7 N 8 11 1016.6 - 0.0 - - - - - - -
02/11:30am 14.7 NNE 7 10 1017.0 - 0.0 - - - - - - -
02/11:00am 14.8 NE 8 12 1017.5 - 0.0 - - - - - - -
02/10:30am 13.4 NNE 9 13 1017.5 - 0.0 - - - - - - -
02/10:00am 13.6 NNE 9 14 1017.7 - 0.0 - - - - - - -
02/09:30am 12.2 NNE 9 12 1017.8 - 0.0 - - - - - - -
02/09:00am 11.5 NNE 9 12 1018.0 - 0.2 - - - - - - -
02/08:30am 11.1 N 9 12 1018.1 - 0.2 - - - - - - -
02/08:00am 10.4 NNE 8 11 1018.0 - 0.2 - - - - - - -
02/07:30am 8.7 N 9 11 1017.9 - 0.2 - - - - - - -
02/07:00am 7.7 N 10 11 1017.7 - 0.2 - - - - - - -
02/06:30am 8.2 NNW 9 10 1017.6 - 0.2 - - - - - - -
02/06:00am 8.9 NNW 9 11 1017.6 - 0.2 - - - - - - -
02/05:30am 9.3 NW 10 11 1017.4 - 0.2 - - - - - - -
02/05:00am 9.7 NW 10 13 1017.5 - 0.2 - - - - - - -
02/04:30am 9.4 NNW 9 12 1017.4 - 0.2 - - - - - - -
02/04:00am 10.5 NW 14 17 1017.4 - 0.2 - - - - - - -
02/03:30am 11.1 NW 15 18 1017.4 - 0.2 - - - - - - -
02/03:00am 11.1 NW 12 15 1017.3 - 0.2 - - - - - - -
02/02:30am 11.0 NW 10 15 1017.2 - 0.2 - - - - - - -
02/02:00am 11.1 WNW 11 16 1017.1 - 0.2 - - - - - - -
02/01:30am 11.1 NW 12 16 1017.3 - 0.2 - - - - - - -
02/01:00am 11.2 WNW 11 15 1017.2 - 0.2 - - - - - - -
02/12:30am 11.3 WNW 12 16 1017.1 - 0.2 - - - - - - -
02/12:00am 11.3 W 12 16 1017.0 - 0.2 - - - - - - -
 
Date/Time
EDT
Temp

°C
Wind Pressure Rain
since 9am
mm
Weather Cloud Vis
km
Sea
Height
m
Swell
Dir
 
Speed
knots
Gust
knots
hPa Trend Height
m
Period
s
Dir
01/11:30pm 11.2 W 14 19 1017.0 - 0.2 - - - - - - -
01/11:00pm 11.5 W 13 16 1017.2 - 0.2 - - - - - - -
01/10:30pm 11.7 W 16 21 1017.2 - 0.2 - - - - - - -
01/10:00pm 11.8 W 15 20 1017.0 - 0.2 - - - - - - -
01/09:30pm 11.9 WSW 18 25 1016.7 - 0.2 - - - - - - -
01/09:00pm 12.0 WSW 20 26 1016.2 - 0.2 - - - - - - -
01/08:30pm 12.0 WSW 23 28 1015.9 - 0.2 - - - - - - -
01/08:00pm 12.1 WSW 24 32 1015.3 - 0.2 - - - - - - -
01/07:30pm 12.1 WSW 23 30 1014.8 - 0.2 - - - - - - -
01/07:00pm 12.6 WSW 23 29 1014.4 - 0.2 - - - - - - -
01/06:30pm 13.2 WSW 23 29 1013.8 - 0.2 - - - - - - -
01/06:00pm 13.8 WSW 21 28 1013.4 - 0.2 - - - - - - -
01/05:30pm 13.5 WSW 20 29 1013.0 - 0.2 - - - - - - -
01/05:27pm 14.1 WSW 19 29 1013.0 - 0.2 - - - - - - -
01/05:00pm 15.3 WSW 21 28 1012.5 - 0.2 - - - - - - -
01/04:32pm 12.8 WSW 20 31 1012.2 - 0.2 - - - - - - -
01/04:30pm 12.8 WSW 20 26 1012.2 - 0.2 - - - - - - -
01/04:00pm 15.4 WSW 23 31 1011.9 - 0.2 - - - - - - -
01/03:30pm 13.7 WSW 22 30 1011.5 - 0.2 - - - - - - -
01/03:00pm 15.0 WSW 24 32 1011.1 - 0.2 - - - - - - -
01/02:41pm 16.0 WSW 23 33 1010.7 - 0.2 - - - - - - -
01/02:30pm 14.5 WSW 24 31 1010.6 - 0.2 - - - - - - -
01/02:08pm 14.8 WSW 23 33 1010.1 - 0.2 - - - - - - -
01/02:00pm 15.5 WSW 23 30 1009.9 - 0.2 - - - - - - -
01/01:30pm 16.2 WSW 22 32 1009.6 - 0.2 - - - - - - -
01/01:00pm 15.9 WSW 22 29 1009.3 - 0.2 - - - - - - -
01/12:30pm 15.7 WSW 23 29 1008.9 - 0.2 - - - - - - -
01/12:00pm 13.6 WSW 23 31 1008.5 - 0.2 Recent precip. - - - - - -
01/11:34am 14.3 WSW 21 31 1008.2 - 0.0 - - - - - - -
01/11:30am 14.8 WSW 21 27 1008.1 - 0.0 - - - - - - -
01/11:08am 14.8 WSW 22 34 1007.6 - 0.0 - - - - - - -
01/11:00am 14.9 WSW 23 29 1007.5 - 0.0 - - - - - - -
01/10:46am 15.2 WSW 24 34 1007.2 - 0.0 - - - - - - -
01/10:30am 15.3 WSW 25 32 1007.0 - 0.0 - - - - - - -
01/10:01am 13.6 WSW 26 36 1006.2 - 0.0 - - - - - - -
01/10:00am 13.6 WSW 26 36 1006.2 - 0.0 - - - - - - -
01/09:57am 13.6 WSW 26 36 1006.3 - 0.0 - - - - - - -
01/09:53am 13.7 WSW 27 36 1006.0 - 0.0 - - - - - - -
01/09:37am 13.7 W 21 31 1005.7 - 0.0 - - - - - - -
01/09:30am 14.4 WSW 25 31 1005.6 - 0.0 - - - - - - -
01/09:00am 13.9 WSW 27 34 1005.1 - 5.2 Recent precip. - - - - - -
01/08:30am 13.4 WSW 27 33 1004.4 - 5.2 - - - - - - -
01/08:09am 12.9 WSW 27 37 1004.0 - 5.2 - - - - - - -
01/08:00am 12.3 WSW 24 32 1003.9 - 5.0 - - - - - - -
01/07:47am 12.2 W 25 35 1003.6 - 5.0 - - - - - - -
01/07:30am 12.8 WSW 27 36 1003.1 - 5.0 - - - - - - -
01/07:23am 12.4 W 23 34 1003.0 - 5.0 - - - - - - -
01/07:00am 12.1 W 22 30 1002.6 - 5.0 - - - - - - -
01/06:31am 12.3 W 24 35 1002.0 - 5.0 - - - - - - -
01/06:30am 12.5 W 24 33 1001.9 - 5.0 - - - - - - -
01/06:07am 12.6 W 25 35 1001.0 - 4.8 - - - - - - -
01/06:00am 12.8 W 26 34 1000.9 - 4.8 Recent precip. - - - - - -
01/05:37am 12.7 W 25 35 1000.5 - 4.8 - - - - - - -
01/05:30am 12.7 W 27 35 1000.5 - 4.8 - - - - - - -
01/05:00am 12.9 W 30 40 999.6 - 4.6 - - - - - - -
01/04:44am 14.1 W 24 40 999.5 - 4.4 - - - - - - -
01/04:30am 14.6 WNW 19 27 999.1 - 4.4 - - - - - - -
01/04:00am 14.5 WNW 28 38 998.7 - 4.4 - - - - - - -
01/03:46am 14.5 WNW 28 38 998.4 - 4.4 - - - - - - -
01/03:44am 14.4 WNW 29 39 998.5 - 4.4 - - - - - - -
01/03:30am 14.8 WNW 36 43 998.3 - 4.4 - - - - - - -
01/03:20am 14.9 WNW 33 43 997.9 - 4.4 - - - - - - -
01/03:07am 15.3 W 32 41 998.0 - 4.4 - - - - - - -
01/03:00am 15.5 W 26 40 998.3 - 4.4 - - - - - - -
01/02:59am 15.4 W 26 40 998.3 - 4.4 - - - - - - -
01/02:30am 15.3 W 29 33 998.4 - 4.4 - - - - - - -
01/02:00am 15.5 WNW 22 31 998.5 - 4.4 - - - - - - -
01/01:30am 15.6 WNW 19 30 998.2 - 4.4 - - - - - - -
01/01:07am 15.8 WNW 21 31 998.1 - 4.4 - - - - - - -
01/01:00am 15.6 W 19 27 998.1 - 4.4 - - - - - - -
01/12:30am 15.8 W 29 34 997.4 - 4.4 - - - - - - -
01/12:00am 15.8 W 29 46 997.1 - 4.4 - - - - - - -
 
Date/Time
EDT
Temp

°C
Wind Pressure Rain
since 9am
mm
Weather Cloud Vis
km
Sea
Height
m
Swell
Dir
 
Speed
knots
Gust
knots
hPa Trend Height
m
Period
s
Dir
28/11:54pm 15.7 W 28 39 997.3 - 4.4 - - - - - - -
28/11:30pm 15.9 W 29 35 997.4 - 4.4 - - - - - - -
28/11:24pm 16.0 W 28 33 997.5 - 4.4 - - - - - - -
28/11:00pm 16.4 W 17 24 998.0 - 4.4 - - - - - - -
28/10:30pm 17.2 WNW 12 18 997.5 - 4.4 - - - - - - -
28/10:00pm 16.6 WNW 9 11 997.2 - 4.4 - - - - - - -
28/09:30pm 18.1 NW 8 10 996.8 - 3.8 - - - - - - -
28/09:00pm 18.3 NNW 10 12 996.6 - 3.8 - - - - - - -
28/08:30pm 18.0 NNW 11 13 996.3 - 3.8 - - - - - - -
28/08:00pm 18.2 NNW 12 18 995.9 - 3.8 - - - - - - -

Other Formats:

Comma delimited format used in spreadsheet applications
http://www.bom.gov.au/fwo/IDT60701/IDT60701.95967.axf

JavaScript Object Notation format (JSON) in row-major order
http://www.bom.gov.au/fwo/IDT60701/IDT60701.95967.json